Terminal Aerodrome Forecast
Issued by NWS Louisville, KY

Home | Current Version | Previous Version | Text Only | Print | Product List | Glossary On
Versions: 1 2 3 4 5 6 7 8 9 10 11 12 13 14 15 16 17 18
000
FTUS43 KLMK 290500
TAFSDF
TAF
KSDF 290530Z 2906/3012 25005KT P6SM BKN250
     FM290900 VRB03KT 5SM HZ SCT250
     FM291400 28006KT P6SM SCT040 BKN250 PROB30 2920/3001 3SM -TSRA
      BKN025CB
     FM300200 30006KT P6SM SCT080=

USA.gov is the U.S. government's official web portal to all federal, state and local government web resources and services.